Time;durP1;ratioP1;P1;durP2;ratioP2;P2;SDS_P1;SDS_P2;PMS_P1;PMS_P2;Temp;Humidity;BMP_temperature;BMP_pressure;BME280_temperature;BME280_humidity;BME280_pressure;Samples;Min_cycle;Max_cycle;Signal;HPM_P1;HPM_P2
2022/08/30 00:01:05;;;;;;;15.93;5.88;;;;;;;17.17;76.98;101857.97;6187074;23;20008;-88
2022/08/30 00:03:45;;;;;;;10.13;5.45;;;;;;;17.11;77.09;101852.56;6160756;23;20012;-88
2022/08/30 00:06:17;;;;;;;10.98;5.18;;;;;;;17.07;77.31;101849.47;6160783;23;20009;-88
2022/08/30 00:08:43;;;;;;;9.87;5.03;;;;;;;16.99;78.06;101844.31;6160099;23;20009;-88
2022/08/30 00:11:12;;;;;;;14.75;5.47;;;;;;;16.98;78.49;101846.22;6159799;23;20160;-88
2022/08/30 00:13:41;;;;;;;12.85;4.97;;;;;;;16.92;78.80;101846.31;6160331;23;20048;-88
2022/08/30 00:16:11;;;;;;;12.85;5.68;;;;;;;16.88;78.73;101845.97;6160457;23;20091;-88
2022/08/30 00:18:37;;;;;;;12.55;5.25;;;;;;;16.86;79.16;101839.00;6160481;23;20005;-88
2022/08/30 00:21:06;;;;;;;9.03;5.00;;;;;;;16.82;79.63;101842.22;6135854;23;20020;-88
2022/08/30 00:23:35;;;;;;;6.80;5.10;;;;;;;16.81;79.64;101853.41;6186787;23;20016;-88
2022/08/30 00:26:04;;;;;;;12.23;5.53;;;;;;;16.76;80.06;101854.13;6159936;23;20388;-88
2022/08/30 00:28:32;;;;;;;8.15;5.35;;;;;;;16.78;80.17;101848.41;6159912;23;20019;-88
2022/08/30 00:31:14;;;;;;;9.38;5.47;;;;;;;16.80;80.25;101855.31;6160226;23;20013;-87
2022/08/30 00:33:42;;;;;;;11.00;5.43;;;;;;;16.81;80.30;101856.16;6161852;23;20057;-88
2022/08/30 00:36:11;;;;;;;11.00;4.97;;;;;;;16.81;80.67;101850.66;6159886;23;20017;-88
2022/08/30 00:38:36;;;;;;;11.43;5.45;;;;;;;16.83;80.54;101851.28;6135609;23;20024;-88
2022/08/30 00:41:09;;;;;;;6.43;4.37;;;;;;;16.84;80.21;101848.31;6159872;23;20037;-88
2022/08/30 00:43:38;;;;;;;9.18;5.28;;;;;;;16.86;80.59;101859.03;6159892;23;20427;-88
2022/08/30 00:46:06;;;;;;;10.90;5.30;;;;;;;16.89;80.73;101861.34;6159512;23;20036;-88
2022/08/30 00:48:35;;;;;;;10.35;4.60;;;;;;;16.93;80.43;101854.34;6135677;23;20100;-88
2022/08/30 00:51:10;;;;;;;14.48;4.88;;;;;;;16.98;80.09;101856.38;6159617;23;20009;-88
2022/08/30 00:53:51;;;;;;;8.60;4.60;;;;;;;17.01;80.22;101848.50;6159933;23;20001;-88
2022/08/30 00:56:17;;;;;;;8.95;5.25;;;;;;;17.08;79.97;101861.28;6160171;23;20016;-88
2022/08/30 00:58:47;;;;;;;10.18;5.38;;;;;;;17.10;80.23;101859.16;6160107;23;20105;-88
2022/08/30 01:01:16;;;;;;;7.70;4.75;;;;;;;17.15;79.96;101859.25;6159777;23;20439;-88
2022/08/30 01:03:43;;;;;;;13.57;5.40;;;;;;;17.16;79.81;101861.78;6159843;23;20013;-88
2022/08/30 01:06:15;;;;;;;11.10;5.00;;;;;;;17.20;79.65;101864.91;6159884;23;20416;-88
2022/08/30 01:08:42;;;;;;;7.15;4.80;;;;;;;17.22;79.67;101862.75;6159239;23;20089;-88
2022/08/30 01:11:08;;;;;;;10.50;4.85;;;;;;;17.24;79.80;101860.59;6159937;23;20097;-87
2022/08/30 01:13:34;;;;;;;12.85;4.80;;;;;;;17.28;79.89;101866.44;6186037;23;20001;-87
2022/08/30 01:16:01;;;;;;;7.70;4.30;;;;;;;17.31;79.56;101869.53;6159645;23;20020;-87
2022/08/30 01:18:34;;;;;;;9.15;4.75;;;;;;;17.29;79.63;101868.13;6159575;23;20040;-87
2022/08/30 01:21:21;;;;;;;10.55;5.05;;;;;;;17.30;78.72;101864.28;6135587;23;20013;-87
2022/08/30 01:23:54;;;;;;;7.05;4.57;;;;;;;17.24;80.00;101865.25;6159775;23;20012;-88
2022/08/30 01:26:20;;;;;;;8.90;4.53;;;;;;;17.15;79.91;101857.34;6160219;23;20047;-87
2022/08/30 01:28:49;;;;;;;8.93;4.63;;;;;;;17.11;80.36;101856.16;6159582;23;20086;-87
2022/08/30 01:31:15;;;;;;;7.50;4.38;;;;;;;17.07;80.53;101856.88;6159707;23;20012;-88
2022/08/30 01:33:40;;;;;;;9.93;4.95;;;;;;;17.03;80.64;101855.66;6135131;23;20021;-87
2022/08/30 01:36:12;;;;;;;8.17;4.47;;;;;;;17.01;80.64;101866.88;6134944;23;20024;-87
2022/08/30 01:38:48;;;;;;;6.28;4.03;;;;;;;16.92;81.02;101862.75;6158791;23;20028;-87
2022/08/30 01:41:21;;;;;;;7.97;4.50;;;;;;;16.87;81.74;101866.22;6159872;23;20009;-88
2022/08/30 01:43:51;;;;;;;10.40;4.57;;;;;;;16.81;81.74;101865.19;6186382;23;20005;-87
2022/08/30 01:46:21;;;;;;;9.17;4.87;;;;;;;16.76;82.47;101864.25;6135848;23;20024;-87
2022/08/30 01:48:47;;;;;;;9.70;4.78;;;;;;;16.78;82.25;101867.59;6159369;23;20088;-88
2022/08/30 01:51:14;;;;;;;12.03;4.77;;;;;;;16.77;82.39;101863.16;6159329;23;20076;-88
2022/08/30 01:53:41;;;;;;;12.00;4.68;;;;;;;16.78;81.87;101862.94;6159757;23;20017;-88
2022/08/30 01:56:07;;;;;;;7.47;4.07;;;;;;;16.80;82.06;101862.69;6159572;23;20009;-88
2022/08/30 01:58:37;;;;;;;9.52;4.50;;;;;;;16.77;82.33;101854.94;6159693;23;20016;-88
2022/08/30 02:01:10;;;;;;;8.68;4.47;;;;;;;16.74;82.33;101860.88;6134933;23;20096;-88
2022/08/30 02:03:36;;;;;;;11.10;5.30;;;;;;;16.67;83.14;101856.34;6159659;23;20009;-88
2022/08/30 02:06:09;;;;;;;11.32;4.80;;;;;;;16.62;83.00;101849.88;6185711;23;20327;-88
2022/08/30 02:08:36;;;;;;;7.60;4.53;;;;;;;16.59;83.39;101853.91;6159474;23;20009;-88
2022/08/30 02:11:02;;;;;;;8.18;4.53;;;;;;;16.55;83.36;101852.72;6159118;23;20439;-88
2022/08/30 02:13:29;;;;;;;8.77;4.43;;;;;;;16.50;83.65;101855.31;6159017;23;20035;-87
2022/08/30 02:16:03;;;;;;;6.88;4.70;;;;;;;16.48;83.68;101852.78;6135287;23;20013;-88
2022/08/30 02:18:29;;;;;;;10.40;4.63;;;;;;;16.45;83.65;101852.44;6135129;23;20092;-87
2022/08/30 02:20:57;;;;;;;11.20;4.93;;;;;;;16.41;84.27;101853.94;6135488;23;20037;-88
2022/08/30 02:23:23;;;;;;;7.00;4.55;;;;;;;16.37;84.54;101850.00;6134692;23;20013;-87
2022/08/30 02:25:54;;;;;;;9.10;5.60;;;;;;;16.34;84.48;101855.94;6159301;23;20501;-88
2022/08/30 02:28:19;;;;;;;8.63;5.00;;;;;;;16.28;84.77;101853.06;6159570;23;20036;-87
2022/08/30 02:30:47;;;;;;;7.47;5.00;;;;;;;16.27;84.97;101853.28;6159399;23;20416;-88
2022/08/30 02:33:14;;;;;;;6.97;4.70;;;;;;;16.26;84.89;101852.44;6159593;23;20041;-87
2022/08/30 02:35:40;;;;;;;12.33;5.50;;;;;;;16.27;85.05;101845.91;6159555;23;20029;-87
2022/08/30 02:38:06;;;;;;;7.10;5.22;;;;;;;16.29;84.91;101845.66;6158516;23;20390;-87
2022/08/30 02:40:32;;;;;;;8.63;4.97;;;;;;;16.29;84.98;101851.16;6184359;23;20431;-87
2022/08/30 02:42:57;;;;;;;10.03;5.77;;;;;;;16.25;84.89;101849.94;6184363;23;20013;-88
2022/08/30 02:45:23;;;;;;;8.32;5.10;;;;;;;16.22;85.22;101840.25;6183733;23;20013;-88
2022/08/30 02:47:49;;;;;;;10.97;5.27;;;;;;;16.18;85.81;101844.53;6184263;23;20009;-87
2022/08/30 02:50:15;;;;;;;8.90;4.90;;;;;;;16.11;86.28;101841.88;6159131;23;20016;-87
2022/08/30 02:52:41;;;;;;;7.53;4.90;;;;;;;16.08;86.10;101836.03;6185679;23;20012;-87
2022/08/30 02:55:10;;;;;;;7.20;4.90;;;;;;;16.06;86.74;101841.72;6186081;23;20248;-87
2022/08/30 02:57:38;;;;;;;7.10;5.30;;;;;;;16.00;87.09;101839.06;6186156;23;20013;-87
2022/08/30 03:00:08;;;;;;;7.07;5.03;;;;;;;16.01;86.97;101838.81;6161486;23;20092;-88
2022/08/30 03:02:34;;;;;;;10.00;5.50;;;;;;;15.96;86.36;101834.03;6185595;23;20063;-87
2022/08/30 03:05:00;;;;;;;7.65;5.53;;;;;;;15.92;86.86;101834.72;6185656;23;20009;-88
2022/08/30 03:07:28;;;;;;;9.85;5.47;;;;;;;15.90;86.96;101834.97;6185726;23;20015;-88
2022/08/30 03:10:12;;;;;;;9.35;5.82;;;;;;;15.90;87.09;101834.09;6185968;23;20024;-88
2022/08/30 03:12:37;;;;;;;5.70;5.10;;;;;;;15.91;87.00;101830.31;6164699;23;20040;-88
2022/08/30 03:15:05;;;;;;;9.95;5.85;;;;;;;15.95;87.10;101829.63;6161069;23;20004;-87
2022/08/30 03:17:30;;;;;;;9.23;5.17;;;;;;;16.02;86.63;101829.56;6160939;23;20009;-87
2022/08/30 03:19:59;;;;;;;12.25;5.03;;;;;;;16.12;86.35;101829.88;6187498;23;20032;-87
2022/08/30 03:22:24;;;;;;;7.80;5.60;;;;;;;16.20;85.94;101836.94;6185926;23;20017;-87
2022/08/30 03:24:56;;;;;;;13.60;5.50;;;;;;;16.24;85.56;101832.66;6184678;23;20044;-88
2022/08/30 03:27:22;;;;;;;9.18;4.90;;;;;;;16.28;85.55;101831.16;6187731;23;20039;-88
2022/08/30 03:29:47;;;;;;;11.45;5.20;;;;;;;16.27;85.59;101825.91;6185726;23;20005;-87
2022/08/30 03:32:15;;;;;;;11.27;5.73;;;;;;;16.27;85.49;101832.22;6160226;23;20005;-88
2022/08/30 03:34:43;;;;;;;7.57;4.93;;;;;;;16.24;85.25;101832.66;6160957;23;20132;-88
2022/08/30 03:37:11;;;;;;;7.38;4.97;;;;;;;16.20;85.63;101823.25;6160969;23;20092;-88
2022/08/30 03:39:39;;;;;;;9.63;5.47;;;;;;;16.16;85.99;101827.50;6158894;23;20060;-88
2022/08/30 03:42:05;;;;;;;10.27;5.63;;;;;;;16.11;85.55;101825.44;6187257;23;20072;-87
2022/08/30 03:44:30;;;;;;;8.43;5.55;;;;;;;16.09;86.23;101824.84;6161070;23;20044;-87
2022/08/30 03:46:56;;;;;;;9.60;5.73;;;;;;;16.07;86.15;101826.13;6185395;23;20009;-87
2022/08/30 03:49:31;;;;;;;10.50;5.83;;;;;;;16.10;86.18;101836.63;6185616;23;20012;-88
2022/08/30 03:52:01;;;;;;;9.85;5.35;;;;;;;16.09;86.01;101827.59;6185464;23;20423;-87
2022/08/30 03:54:27;;;;;;;7.32;6.10;;;;;;;16.13;86.37;101831.50;6160763;23;20023;-87
2022/08/30 03:56:52;;;;;;;7.53;5.40;;;;;;;16.13;86.13;101833.44;6160844;23;20005;-87
2022/08/30 03:59:18;;;;;;;7.40;5.80;;;;;;;16.10;86.17;101833.88;6185392;23;20017;-87
2022/08/30 04:01:44;;;;;;;8.90;5.85;;;;;;;16.08;85.90;101836.03;6160351;23;20015;-88
2022/08/30 04:04:10;;;;;;;7.43;5.80;;;;;;;16.01;86.43;101829.78;6185120;23;20485;-88
2022/08/30 04:06:36;;;;;;;10.30;6.43;;;;;;;15.95;86.33;101826.88;6185068;23;20009;-87
2022/08/30 04:09:05;;;;;;;9.45;6.68;;;;;;;15.92;86.56;101832.81;6160122;23;20092;-88
2022/08/30 04:11:30;;;;;;;10.63;6.65;;;;;;;15.89;86.50;101827.81;6186954;23;20009;-88
2022/08/30 04:13:58;;;;;;;8.57;5.77;;;;;;;15.88;86.85;101828.03;6185290;23;20012;-87
2022/08/30 04:16:27;;;;;;;9.68;6.30;;;;;;;15.83;86.78;101831.44;6185110;23;20005;-87
2022/08/30 04:18:53;;;;;;;10.73;6.18;;;;;;;15.79;87.16;101825.56;6184918;23;20048;-88
2022/08/30 04:21:18;;;;;;;8.37;6.17;;;;;;;15.75;87.36;101826.22;6185224;23;20009;-88
2022/08/30 04:23:44;;;;;;;8.55;6.18;;;;;;;15.76;87.30;101836.13;6186302;23;20008;-87
2022/08/30 04:26:10;;;;;;;8.37;6.77;;;;;;;15.78;87.71;101834.88;6160590;23;20052;-87
2022/08/30 04:28:35;;;;;;;11.50;6.85;;;;;;;15.87;87.71;101850.97;6184897;23;20013;-87
2022/08/30 04:31:13;;;;;;;8.23;6.67;;;;;;;15.90;87.29;101851.38;6185073;23;20009;-87
2022/08/30 04:33:42;;;;;;;8.70;6.32;;;;;;;15.97;86.72;101843.06;6185241;23;20013;-88
2022/08/30 04:36:08;;;;;;;9.13;6.55;;;;;;;15.95;86.70;101842.47;6185062;23;20076;-88
2022/08/30 04:38:35;;;;;;;8.50;6.47;;;;;;;15.93;87.06;101847.34;6184375;23;20017;-87
2022/08/30 04:41:02;;;;;;;9.10;6.78;;;;;;;15.91;87.23;101855.75;6185116;23;20009;-88
2022/08/30 04:43:31;;;;;;;8.20;6.93;;;;;;;15.90;86.96;101853.25;6185012;23;20009;-88
2022/08/30 04:45:56;;;;;;;11.27;7.60;;;;;;;15.87;87.78;101860.03;6185173;23;20005;-87
2022/08/30 04:48:22;;;;;;;8.43;6.47;;;;;;;15.85;87.49;101858.59;6184587;23;20383;-88
2022/08/30 04:50:48;;;;;;;8.93;7.45;;;;;;;15.79;87.81;101866.63;6184939;23;20009;-87
2022/08/30 04:53:18;;;;;;;12.25;7.65;;;;;;;15.75;88.11;101859.91;6184899;23;20332;-87
2022/08/30 04:55:49;;;;;;;12.60;7.73;;;;;;;15.70;88.19;101859.75;6159955;23;20088;-87
2022/08/30 04:58:14;;;;;;;9.15;7.03;;;;;;;15.67;88.25;101864.84;6185198;23;20004;-87
2022/08/30 05:00:42;;;;;;;9.37;7.53;;;;;;;15.66;88.09;101866.72;6184938;23;20375;-88
2022/08/30 05:03:08;;;;;;;10.55;7.60;;;;;;;15.64;88.19;101857.91;6184751;23;20009;-88
2022/08/30 05:05:39;;;;;;;10.95;7.47;;;;;;;15.62;87.99;101860.03;6184059;23;20320;-88
2022/08/30 05:08:13;;;;;;;12.45;7.80;;;;;;;15.60;88.31;101865.75;6184334;23;20043;-87
2022/08/30 05:17:43;;;;;;;10.45;7.78;;;;;;;15.60;88.40;101865.75;6088963;23;20007;-91
2022/08/30 05:20:23;;;;;;;13.20;8.63;;;;;;;15.65;88.46;101876.00;6185398;23;20005;-91
2022/08/30 05:22:56;;;;;;;11.23;8.48;;;;;;;15.70;88.03;101872.59;6161789;23;20009;-92
2022/08/30 05:25:26;;;;;;;10.43;7.97;;;;;;;15.73;88.25;101870.22;6184863;23;20009;-91
2022/08/30 05:27:52;;;;;;;10.32;8.35;;;;;;;15.77;87.80;101876.09;6185300;23;20088;-90
2022/08/30 05:30:18;;;;;;;11.77;8.23;;;;;;;15.85;87.75;101884.03;6185395;23;20020;-93
2022/08/30 05:32:51;;;;;;;14.05;8.50;;;;;;;15.88;87.86;101889.06;6185372;23;20056;-94
2022/08/30 05:35:20;;;;;;;9.77;7.97;;;;;;;16.00;87.05;101883.69;6185987;23;20047;-93
2022/08/30 05:37:45;;;;;;;11.57;8.27;;;;;;;16.08;86.79;101886.13;6186307;23;20013;-85
2022/08/30 05:40:16;;;;;;;13.98;8.40;;;;;;;16.14;86.75;101887.13;6186107;23;20442;-87
2022/08/30 05:42:42;;;;;;;10.27;8.45;;;;;;;16.14;86.13;101884.38;6159520;23;20012;-85
2022/08/30 05:45:08;;;;;;;10.35;8.25;;;;;;;16.14;86.20;101887.13;6159646;23;20327;-85
2022/08/30 05:47:44;;;;;;;12.77;8.10;;;;;;;16.16;85.92;101879.50;6159640;23;20051;-89
2022/08/30 05:50:12;;;;;;;10.23;8.35;;;;;;;16.25;85.85;101883.63;6159621;23;20009;-87
2022/08/30 05:52:39;;;;;;;12.13;8.90;;;;;;;16.35;85.35;101885.81;6159435;23;20097;-88
2022/08/30 05:55:06;;;;;;;9.65;8.25;;;;;;;16.40;84.88;101883.25;6159674;23;20016;-89
2022/08/30 05:57:38;;;;;;;12.27;8.60;;;;;;;16.49;84.39;101875.56;6159852;23;20009;-89
2022/08/30 06:00:09;;;;;;;11.07;8.43;;;;;;;16.56;84.15;101873.56;6159730;23;20020;-89
2022/08/30 06:02:37;;;;;;;16.55;8.80;;;;;;;16.65;83.83;101885.03;6160231;23;20005;-90
2022/08/30 06:05:03;;;;;;;10.38;9.30;;;;;;;16.72;83.20;101885.78;6186131;23;20009;-88
2022/08/30 06:07:29;;;;;;;11.38;8.43;;;;;;;16.83;82.74;101885.00;6135098;23;20012;-89
2022/08/30 06:09:57;;;;;;;11.53;8.70;;;;;;;16.87;82.57;101890.88;6158797;23;20083;-89
2022/08/30 06:12:26;;;;;;;15.35;8.63;;;;;;;16.83;82.82;101890.47;6159501;23;20004;-85
2022/08/30 06:14:51;;;;;;;12.63;9.00;;;;;;;16.90;82.47;101893.16;6158655;23;20012;-87
2022/08/30 06:17:17;;;;;;;11.80;8.23;;;;;;;16.95;81.94;101890.56;6110417;23;20308;-89
2022/08/30 06:19:49;;;;;;;15.30;9.10;;;;;;;17.00;81.74;101890.69;6158746;23;20016;-89
2022/08/30 06:22:18;;;;;;;13.18;9.30;;;;;;;17.06;81.18;101888.91;6159644;23;20005;-89
2022/08/30 06:24:49;;;;;;;11.63;8.95;;;;;;;17.09;81.30;101890.38;6159554;23;20020;-87
2022/08/30 06:27:16;;;;;;;11.32;9.43;;;;;;;17.11;81.35;101894.56;6136962;23;20067;-89
2022/08/30 06:29:49;;;;;;;10.25;9.07;;;;;;;17.19;81.03;101883.22;6161661;23;20016;-89
2022/08/30 06:32:18;;;;;;;10.73;9.03;;;;;;;17.22;80.52;101881.94;6161153;23;20075;-88
2022/08/30 06:35:01;;;;;;;11.95;8.95;;;;;;;17.24;79.99;101877.03;6188527;23;20005;-89
2022/08/30 06:37:56;;;;;;;13.30;9.50;;;;;;;17.26;79.80;101877.66;6160775;23;20009;-89
2022/08/30 06:40:30;;;;;;;11.90;8.82;;;;;;;17.34;79.68;101880.03;6142332;23;20100;-88
2022/08/30 06:43:09;;;;;;;17.48;9.63;;;;;;;17.42;79.17;101878.03;6137465;23;20143;-89
2022/08/30 06:46:07;;;;;;;12.63;9.77;;;;;;;17.44;78.99;101875.91;6162015;23;20005;-89
2022/08/30 06:48:36;;;;;;;14.63;10.00;;;;;;;17.47;79.20;101876.25;6153163;23;20048;-88
2022/08/30 06:51:20;;;;;;;;;;;;;;;;;;;;;
2022/08/30 06:54:07;;;;;;;12.63;10.18;;;;;;;17.58;78.29;101876.50;6188337;23;20080;-88
2022/08/30 06:56:35;;;;;;;12.95;9.75;;;;;;;17.66;77.83;101867.94;6162166;23;20009;-89
2022/08/30 06:59:21;;;;;;;;;;;;;;;;;;;;;
2022/08/30 07:01:56;;;;;;;15.32;9.73;;;;;;;17.73;78.01;101874.13;6188316;23;20080;-89
2022/08/30 07:04:25;;;;;;;15.00;9.57;;;;;;;17.87;77.45;101877.47;6162192;23;20015;-89
2022/08/30 07:07:06;;;;;;;;;;;;;;;;;;;;;
2022/08/30 07:09:34;;;;;;;13.32;9.05;;;;;;;18.20;75.52;101882.38;6187506;23;20080;-89
2022/08/30 07:12:05;;;;;;;14.40;9.27;;;;;;;18.34;74.63;101873.88;6160843;23;20009;-88
2022/08/30 07:14:33;;;;;;;15.68;9.00;;;;;;;18.54;73.98;101881.66;6136961;23;20017;-87
2022/08/30 07:18:49;;;;;;;12.57;9.07;;;;;;;18.67;73.28;101886.06;6187066;23;20001;-87
2022/08/30 07:19:51;;;;;;;12.63;8.20;;;;;;;18.74;73.04;101887.56;6186222;23;20084;-87
2022/08/30 07:22:17;;;;;;;11.38;8.57;;;;;;;18.75;72.93;101896.69;6160939;23;20031;-86
2022/08/30 07:24:46;;;;;;;11.23;8.07;;;;;;;18.90;72.96;101902.50;6160696;23;20009;-86
2022/08/30 07:27:15;;;;;;;10.98;8.00;;;;;;;18.96;72.57;101897.94;6160884;23;20009;-86
2022/08/30 07:29:40;;;;;;;10.10;8.25;;;;;;;18.99;71.98;101894.69;6187772;23;20013;-86
2022/08/30 07:32:06;;;;;;;9.97;8.40;;;;;;;19.08;71.88;101900.63;6160898;23;20087;-86
2022/08/30 07:34:32;;;;;;;11.80;8.57;;;;;;;19.11;71.17;101887.19;6187058;23;20016;-86
2022/08/30 07:36:57;;;;;;;9.93;7.93;;;;;;;19.18;70.78;101889.81;6186698;23;20005;-86
2022/08/30 07:39:23;;;;;;;8.82;7.43;;;;;;;19.29;70.39;101893.56;6159545;23;20024;-86
2022/08/30 07:41:50;;;;;;;9.60;8.03;;;;;;;19.38;70.01;101905.81;6135919;23;20358;-85
2022/08/30 07:44:16;;;;;;;8.70;7.77;;;;;;;19.49;69.29;101903.22;6161595;23;20065;-85
2022/08/30 07:46:41;;;;;;;11.10;7.97;;;;;;;19.61;68.98;101893.00;6160819;23;20300;-84
2022/08/30 07:49:08;;;;;;;15.88;7.88;;;;;;;19.81;68.72;101900.75;6160763;23;20017;-85
2022/08/30 07:51:35;;;;;;;12.43;7.93;;;;;;;19.95;68.25;101899.31;6160849;23;20005;-84
2022/08/30 07:54:01;;;;;;;8.83;7.40;;;;;;;19.98;67.47;101893.31;6187043;23;20005;-84
2022/08/30 07:56:26;;;;;;;10.57;7.40;;;;;;;19.99;67.45;101894.16;6186657;23;20339;-84
2022/08/30 07:58:52;;;;;;;9.33;7.43;;;;;;;20.12;67.02;101903.94;6160865;23;20055;-84
2022/08/30 08:01:19;;;;;;;12.07;7.47;;;;;;;20.15;66.94;101897.94;6160758;23;20427;-84
2022/08/30 08:03:45;;;;;;;11.40;7.70;;;;;;;20.22;66.34;101900.50;6135986;23;20107;-84
2022/08/30 08:06:13;;;;;;;10.93;7.40;;;;;;;20.26;66.12;101899.75;6160729;23;20101;-85
2022/08/30 08:08:40;;;;;;;8.80;7.53;;;;;;;20.36;65.57;101904.56;6161463;23;20005;-85
2022/08/30 08:11:13;;;;;;;7.75;6.93;;;;;;;20.42;65.41;101894.44;6160291;23;20067;-85
2022/08/30 08:13:39;;;;;;;9.50;7.63;;;;;;;20.49;65.07;101895.91;6186750;23;20091;-85
2022/08/30 08:16:08;;;;;;;9.63;7.65;;;;;;;20.60;65.12;101898.78;6111062;23;20013;-85
2022/08/30 08:18:36;;;;;;;12.10;6.90;;;;;;;20.68;64.84;101896.44;6111684;23;20071;-85
2022/08/30 08:21:01;;;;;;;10.13;7.18;;;;;;;;;;6112915;23;20096;-85
2022/08/30 08:23:27;;;;;;;12.40;7.10;;;;;;;20.84;63.96;101896.59;6186257;23;20040;-85
2022/08/30 08:25:53;;;;;;;10.40;7.18;;;;;;;20.99;63.61;101905.06;6160366;23;20009;-84
2022/08/30 08:28:19;;;;;;;13.13;7.10;;;;;;;21.11;63.40;101912.31;6186542;23;20032;-85
2022/08/30 08:30:45;;;;;;;9.85;6.70;;;;;;;21.18;62.77;101913.78;6160395;23;20015;-85
2022/08/30 08:33:13;;;;;;;8.15;6.78;;;;;;;21.23;62.15;101901.97;6160469;23;20036;-84
2022/08/30 08:35:39;;;;;;;7.18;6.45;;;;;;;21.45;62.21;101906.56;6186675;23;20005;-84
2022/08/30 08:38:05;;;;;;;8.33;6.20;;;;;;;21.50;61.10;101907.47;6164185;23;20498;-85
2022/08/30 08:41:08;;;;;;;10.25;5.95;;;;;;;21.62;61.94;101921.09;6186351;23;20080;-85
2022/08/30 08:43:36;;;;;;;10.10;6.13;;;;;;;21.64;60.25;101912.56;6179280;23;20087;-84
2022/08/30 08:46:14;;;;;;;6.73;6.03;;;;;;;21.75;60.65;101908.78;6184745;23;20323;-85
2022/08/30 08:48:48;;;;;;;6.53;5.90;;;;;;;21.88;60.59;101916.59;6185416;23;20009;-84
2022/08/30 08:54:18;;;;;;;7.30;5.22;;;;;;;22.20;59.52;101929.53;6186926;23;20044;-85
2022/08/30 08:56:43;;;;;;;8.73;5.70;;;;;;;22.22;58.78;101920.97;6185239;23;20033;-85
2022/08/30 08:59:10;;;;;;;6.37;5.23;;;;;;;22.22;58.45;101924.53;6186414;23;20439;-84
2022/08/30 09:01:42;;;;;;;5.82;4.97;;;;;;;22.26;58.36;101913.78;6186477;23;20083;-84
2022/08/30 09:04:16;;;;;;;7.43;4.63;;;;;;;22.36;58.14;101915.81;6185852;23;20019;-85
2022/08/30 09:06:53;;;;;;;5.97;4.87;;;;;;;22.51;58.01;101920.56;6186033;23;20064;-84
2022/08/30 09:09:28;;;;;;;8.50;5.10;;;;;;;22.61;57.06;101912.31;6185172;23;20009;-85
2022/08/30 09:11:53;;;;;;;7.95;4.70;;;;;;;22.68;56.63;101912.06;6186390;23;20008;-84
2022/08/30 09:14:25;;;;;;;9.27;4.70;;;;;;;22.86;56.81;101919.03;6185280;23;20013;-84
2022/08/30 09:16:59;;;;;;;5.35;4.50;;;;;;;23.00;56.07;101917.41;6185410;23;20013;-84
2022/08/30 09:19:32;;;;;;;7.45;4.68;;;;;;;23.06;55.83;101915.47;6186162;23;20008;-85
2022/08/30 09:22:15;;;;;;;7.03;4.38;;;;;;;23.22;55.40;101908.03;6186294;23;20005;-84
2022/08/30 09:24:44;;;;;;;5.57;4.20;;;;;;;23.47;54.43;101907.22;6185490;23;20005;-84
2022/08/30 09:27:31;;;;;;;13.95;4.35;;;;;;;23.44;54.33;101905.88;6186371;23;20005;-84
2022/08/30 09:30:05;;;;;;;7.63;4.30;;;;;;;23.63;53.32;101919.13;6187043;23;20566;-85
2022/08/30 09:32:34;;;;;;;7.47;4.05;;;;;;;23.68;52.42;101912.75;6186190;23;20005;-84
2022/08/30 09:34:59;;;;;;;6.85;3.30;;;;;;;23.76;52.32;101909.44;6186114;23;20005;-83
2022/08/30 09:37:34;;;;;;;7.17;3.20;;;;;;;23.79;51.56;101911.66;6184759;23;20056;-84
2022/08/30 09:40:01;;;;;;;4.20;2.70;;;;;;;23.75;50.93;101918.84;6185984;23;20064;-84
2022/08/30 09:42:28;;;;;;;4.95;3.25;;;;;;;23.89;50.93;101908.88;6184440;23;20008;-88
2022/08/30 09:45:09;;;;;;;5.93;3.00;;;;;;;23.89;50.53;101903.34;6186090;23;20029;-84
2022/08/30 09:47:37;;;;;;;4.40;2.60;;;;;;;24.09;49.95;101909.94;6186920;23;20001;-84
2022/08/30 09:50:16;;;;;;;6.63;2.95;;;;;;;24.34;49.88;101912.66;6186225;23;20005;-84
2022/08/30 09:53:21;;;;;;;3.58;2.72;;;;;;;24.49;48.53;101917.31;6186498;23;20005;-86
2022/08/30 09:56:09;;;;;;;6.72;2.92;;;;;;;24.65;48.81;101920.03;6070999;23;20097;-84
2022/08/30 09:58:49;;;;;;;5.93;2.60;;;;;;;24.69;48.37;101923.91;6181035;23;20037;-84
2022/08/30 10:01:22;;;;;;;12.48;3.00;;;;;;;24.77;47.18;101911.34;6185817;23;20036;-83
2022/08/30 10:03:56;;;;;;;5.60;2.90;;;;;;;24.83;47.66;101924.09;6188654;23;20008;-84
2022/08/30 10:06:35;;;;;;;5.88;2.95;;;;;;;24.91;47.76;101909.63;6188193;23;20083;-84
2022/08/30 10:09:24;;;;;;;4.57;2.80;;;;;;;25.14;47.72;101912.78;6187777;23;20423;-84
2022/08/30 10:12:10;;;;;;;4.23;2.50;;;;;;;25.25;46.64;101902.47;6187448;23;20016;-84
2022/08/30 10:14:57;;;;;;;3.15;2.40;;;;;;;25.53;45.88;101904.47;6188140;23;20132;-85
2022/08/30 10:17:37;;;;;;;6.32;2.72;;;;;;;25.87;45.86;101914.69;6188346;23;20035;-85
2022/08/30 10:20:12;;;;;;;4.50;2.35;;;;;;;26.03;44.88;101907.06;6187672;23;20019;-84
2022/08/30 10:22:54;;;;;;;6.70;2.72;;;;;;;26.18;44.52;101897.72;6189698;23;20043;-84
2022/08/30 10:29:05;;;;;;;5.97;2.40;;;;;;;26.34;44.01;101894.72;6131961;23;20156;-86
2022/08/30 10:31:46;;;;;;;9.63;2.50;;;;;;;26.66;43.32;101902.38;6187882;23;20005;-86
2022/08/30 10:37:23;;;;;;;3.83;2.25;;;;;;;26.90;41.47;101893.16;6129146;23;20017;-86
2022/08/30 10:39:52;;;;;;;4.73;2.30;;;;;;;27.11;41.28;101899.25;6187205;23;20013;-85
2022/08/30 10:42:27;;;;;;;6.43;2.00;;;;;;;27.27;40.90;101889.53;6188774;23;20016;-85
2022/08/30 10:45:09;;;;;;;5.90;2.60;;;;;;;27.46;40.90;101894.25;6187615;23;20009;-85
2022/08/30 10:47:38;;;;;;;6.88;2.67;;;;;;;27.54;40.49;101887.97;6187588;23;20084;-85
2022/08/30 10:53:33;;;;;;;8.47;2.53;;;;;;;28.21;38.61;101895.09;6105387;23;20488;-86
2022/08/30 10:56:10;;;;;;;5.20;2.30;;;;;;;28.29;38.45;101885.19;6189802;23;20418;-86
2022/08/30 10:58:40;;;;;;;11.50;2.70;;;;;;;28.77;37.38;101875.50;6189482;23;20009;-86
2022/08/30 11:14:05;;;;;;;7.88;2.65;;;;;;;30.95;33.30;101884.94;6096640;23;20341;-85
2022/08/30 11:16:37;;;;;;;6.72;2.60;;;;;;;31.90;32.33;101881.47;6186766;23;20013;-86
2022/08/30 11:19:16;;;;;;;4.68;2.50;;;;;;;33.07;30.59;101877.25;6186979;23;20009;-86
2022/08/30 11:21:45;;;;;;;5.37;2.60;;;;;;;33.41;28.94;101878.91;6187573;23;20032;-86
2022/08/30 11:24:15;;;;;;;3.58;2.38;;;;;;;33.55;28.40;101873.81;6185663;23;20435;-86
2022/08/30 11:26:43;;;;;;;4.70;2.85;;;;;;;34.52;27.34;101876.19;6187263;23;20028;-86
2022/08/30 11:29:29;;;;;;;6.07;2.75;;;;;;;35.65;27.51;101869.72;6185620;23;20005;-85
2022/08/30 11:32:17;;;;;;;8.43;2.50;;;;;;;36.41;25.42;101880.91;6187557;23;20028;-86
2022/08/30 11:34:45;;;;;;;4.53;2.53;;;;;;;35.73;25.19;101877.22;6184850;23;20458;-86
2022/08/30 11:37:43;;;;;;;3.72;2.97;;;;;;;35.50;26.67;101874.19;6185567;23;20048;-86
2022/08/30 11:40:10;;;;;;;4.70;2.70;;;;;;;36.12;24.71;101863.25;6186064;23;20017;-86
2022/08/30 11:42:38;;;;;;;4.63;3.10;;;;;;;36.00;24.66;101869.03;6187357;23;20012;-86
2022/08/30 11:45:22;;;;;;;4.88;3.30;;;;;;;35.47;26.84;101870.06;6185556;23;20084;-86
2022/08/30 11:47:49;;;;;;;5.67;2.77;;;;;;;35.54;25.02;101865.78;6187090;23;20012;-86
2022/08/30 11:50:27;;;;;;;6.03;2.78;;;;;;;36.11;24.83;101850.34;6187071;23;20075;-86
2022/08/30 11:53:21;;;;;;;3.25;2.63;;;;;;;37.41;23.86;101860.72;6185674;23;20320;-86
2022/08/30 11:56:11;;;;;;;9.13;3.08;;;;;;;36.69;23.97;101845.97;6186763;23;19997;-87
2022/08/30 11:59:18;;;;;;;3.40;2.83;;;;;;;37.63;23.67;101851.41;6186465;23;20032;-86
2022/08/30 12:01:43;;;;;;;9.33;2.97;;;;;;;38.78;21.06;101838.97;6185330;23;20012;-86
2022/08/30 12:04:26;;;;;;;3.10;2.80;;;;;;;39.47;22.39;101834.84;6185290;23;20005;-86
2022/08/30 12:07:02;;;;;;;8.48;3.30;;;;;;;40.34;20.33;101827.75;6186802;23;20089;-86
2022/08/30 12:09:28;;;;;;;4.63;3.20;;;;;;;40.96;19.10;101826.00;6186889;23;20001;-87
2022/08/30 12:12:05;;;;;;;6.20;3.22;;;;;;;41.59;19.24;101830.56;6185222;23;20009;-86
2022/08/30 12:14:39;;;;;;;8.18;3.38;;;;;;;41.27;18.59;101828.47;6186793;23;20009;-87
2022/08/30 12:20:23;;;;;;;6.85;3.90;;;;;;;44.25;16.42;101825.38;6124662;23;20055;-87